createdAt,value
2018-09-12T00:00:55.182Z,22.50
2018-09-12T00:03:29.486Z,22.40
2018-09-12T00:06:03.818Z,22.40
2018-09-12T00:08:38.058Z,22.40
2018-09-12T00:11:12.430Z,22.30
2018-09-12T00:13:46.633Z,22.30
2018-09-12T00:16:20.930Z,22.20
2018-09-12T00:18:55.366Z,22.30
2018-09-12T00:21:29.701Z,22.20
2018-09-12T00:24:04.022Z,22.20
2018-09-12T00:26:38.394Z,22.20
2018-09-12T00:29:12.687Z,22.20
2018-09-12T00:31:46.918Z,22.20
2018-09-12T00:34:21.094Z,22.10
2018-09-12T00:36:55.509Z,22.10
2018-09-12T00:39:29.786Z,22.10
2018-09-12T00:42:04.181Z,22.10
2018-09-12T00:44:38.422Z,22.00
2018-09-12T00:47:12.726Z,22.00
2018-09-12T00:49:46.959Z,22.00
2018-09-12T00:52:21.367Z,22.00
2018-09-12T00:54:55.793Z,21.90
2018-09-12T00:57:30.193Z,21.90
2018-09-12T01:00:04.543Z,21.90
2018-09-12T01:02:39.101Z,21.90
2018-09-12T01:05:13.327Z,21.90
2018-09-12T01:07:47.619Z,21.80
2018-09-12T01:10:21.955Z,21.80
2018-09-12T01:12:56.185Z,21.80
2018-09-12T01:15:30.346Z,21.80
2018-09-12T01:18:04.787Z,21.90
2018-09-12T01:20:39.109Z,21.90
2018-09-12T01:23:13.342Z,21.80
2018-09-12T01:25:47.497Z,21.70
2018-09-12T01:28:21.808Z,21.70
2018-09-12T01:30:56.201Z,21.60
2018-09-12T01:33:30.494Z,21.60
2018-09-12T01:36:04.922Z,21.60
2018-09-12T01:38:39.097Z,21.60
2018-09-12T01:41:13.479Z,21.60
2018-09-12T01:43:47.722Z,21.60
2018-09-12T01:46:22.014Z,21.60
2018-09-12T01:48:56.382Z,21.50
2018-09-12T01:51:30.694Z,21.50
2018-09-12T01:54:04.937Z,21.50
2018-09-12T01:56:39.216Z,21.50
2018-09-12T01:59:14.085Z,21.50
2018-09-12T02:01:48.268Z,21.40
2018-09-12T02:04:22.617Z,21.30
2018-09-12T02:06:57.023Z,21.30
2018-09-12T02:09:31.258Z,21.30
2018-09-12T02:12:05.629Z,21.30
2018-09-12T02:14:39.897Z,21.30
2018-09-12T02:17:14.281Z,21.30
2018-09-12T02:19:48.661Z,21.20
2018-09-12T02:22:22.855Z,21.20
2018-09-12T02:24:57.113Z,21.20
2018-09-12T02:27:31.447Z,21.10
2018-09-12T02:30:05.797Z,21.10
2018-09-12T02:32:39.942Z,21.10
2018-09-12T02:35:14.349Z,20.90
2018-09-12T02:37:48.666Z,21.00
2018-09-12T02:40:23.114Z,21.00
2018-09-12T02:42:57.510Z,20.90
2018-09-12T02:45:31.780Z,21.00
2018-09-12T02:48:06.209Z,21.00
2018-09-12T02:50:40.455Z,20.80
2018-09-12T02:53:14.823Z,20.90
2018-09-12T02:55:49.101Z,20.80
2018-09-12T02:58:23.496Z,20.80
2018-09-12T03:00:57.767Z,20.70
2018-09-12T03:03:32.139Z,20.70
2018-09-12T03:06:06.773Z,20.70
2018-09-12T03:08:41.063Z,20.60
2018-09-12T03:11:15.338Z,20.40
2018-09-12T03:13:49.724Z,20.50
2018-09-12T03:16:24.076Z,20.60
2018-09-12T03:18:58.397Z,20.60
2018-09-12T03:21:32.682Z,20.60
2018-09-12T03:24:07.199Z,20.60
2018-09-12T03:26:41.556Z,20.60
2018-09-12T03:29:15.916Z,20.50
2018-09-12T03:31:50.070Z,20.60
2018-09-12T03:34:24.360Z,20.50
2018-09-12T03:36:58.683Z,20.50
2018-09-12T03:39:32.895Z,20.60
2018-09-12T03:42:07.271Z,20.50
2018-09-12T03:44:41.610Z,20.50
2018-09-12T03:47:15.840Z,20.50
2018-09-12T03:49:50.172Z,20.40
2018-09-12T03:52:24.523Z,20.40
2018-09-12T03:54:59.006Z,20.40
2018-09-12T03:57:33.403Z,20.30
2018-09-12T04:00:07.940Z,20.30
2018-09-12T04:02:42.308Z,20.30
2018-09-12T04:05:16.496Z,20.30
2018-09-12T04:07:50.664Z,20.30
2018-09-12T04:10:26.010Z,20.20
2018-09-12T04:13:00.296Z,20.20
2018-09-12T04:15:34.488Z,20.10
2018-09-12T04:18:08.817Z,20.20
2018-09-12T04:20:43.138Z,20.20
2018-09-12T04:23:17.466Z,20.20
2018-09-12T04:25:51.899Z,20.30
2018-09-12T04:28:26.278Z,20.20
2018-09-12T04:31:00.615Z,20.20
2018-09-12T04:33:34.850Z,20.10
2018-09-12T04:36:09.146Z,20.20
2018-09-12T04:38:43.466Z,20.20
2018-09-12T04:41:17.698Z,20.20
2018-09-12T04:43:51.999Z,20.10
2018-09-12T04:46:26.256Z,20.10
2018-09-12T04:49:00.550Z,20.10
2018-09-12T04:51:34.872Z,20.10
2018-09-12T04:54:09.225Z,20.10
2018-09-12T04:56:43.498Z,19.90
2018-09-12T04:59:17.665Z,19.90
2018-09-12T05:01:51.958Z,19.90
2018-09-12T05:04:26.266Z,20.00
2018-09-12T05:07:00.566Z,20.00
2018-09-12T05:09:34.908Z,20.10
2018-09-12T05:12:09.241Z,19.90
2018-09-12T05:14:43.548Z,20.10
2018-09-12T05:17:17.751Z,20.00
2018-09-12T05:19:52.001Z,20.10
2018-09-12T05:22:26.419Z,20.10
2018-09-12T05:25:00.656Z,20.10
2018-09-12T05:27:34.994Z,20.00
2018-09-12T05:30:09.230Z,20.10
2018-09-12T05:32:43.512Z,20.10
2018-09-12T05:35:17.705Z,20.00
2018-09-12T05:37:52.026Z,19.90
2018-09-12T05:40:26.371Z,20.00
2018-09-12T05:43:00.642Z,20.00
2018-09-12T05:45:34.848Z,20.10
2018-09-12T05:48:09.006Z,20.10
2018-09-12T05:50:43.359Z,20.10
2018-09-12T05:53:17.630Z,20.10
2018-09-12T05:55:51.934Z,20.00
2018-09-12T05:58:26.230Z,20.00
2018-09-12T06:01:00.667Z,20.10
2018-09-12T06:03:35.072Z,20.10
2018-09-12T06:06:09.454Z,20.20
2018-09-12T06:08:43.774Z,20.00
2018-09-12T06:11:18.078Z,20.20
2018-09-12T06:13:52.337Z,20.20
2018-09-12T06:16:26.570Z,20.20
2018-09-12T06:19:00.918Z,20.30
2018-09-12T06:21:35.438Z,20.20
2018-09-12T06:24:09.657Z,20.30
2018-09-12T06:26:43.826Z,20.20
2018-09-12T06:29:18.123Z,20.20
2018-09-12T06:31:52.402Z,20.30
2018-09-12T06:34:26.817Z,20.30
2018-09-12T06:37:01.136Z,20.40
2018-09-12T06:39:35.350Z,20.40
2018-09-12T06:42:09.618Z,20.40
2018-09-12T06:44:43.896Z,20.40
2018-09-12T06:47:18.049Z,20.50
2018-09-12T06:49:52.362Z,20.50
2018-09-12T06:52:26.691Z,20.50
2018-09-12T06:55:00.975Z,20.50
2018-09-12T06:57:35.095Z,20.40
2018-09-12T07:00:09.699Z,20.50
2018-09-12T07:02:43.902Z,20.50
2018-09-12T07:05:18.110Z,20.60
2018-09-12T07:07:52.359Z,20.60
2018-09-12T07:10:26.647Z,20.60
2018-09-12T07:13:00.954Z,20.60
2018-09-12T07:15:35.189Z,20.60
2018-09-12T07:18:09.478Z,20.60
2018-09-12T07:20:43.838Z,20.60
2018-09-12T07:23:18.203Z,20.70
2018-09-12T07:25:52.546Z,20.70
2018-09-12T07:28:26.804Z,20.60
2018-09-12T07:31:01.254Z,20.60
2018-09-12T07:33:35.503Z,20.60
2018-09-12T07:36:09.738Z,20.70
2018-09-12T07:38:44.091Z,20.70
2018-09-12T07:41:18.398Z,20.60
2018-09-12T07:43:52.786Z,20.70
2018-09-12T07:46:27.099Z,20.70
2018-09-12T07:49:01.422Z,20.70
2018-09-12T07:51:35.721Z,20.90
2018-09-12T07:54:10.040Z,20.90
2018-09-12T07:56:44.404Z,20.80
2018-09-12T07:59:18.750Z,20.90
2018-09-12T08:01:53.037Z,20.90
2018-09-12T08:04:27.375Z,20.90
2018-09-12T08:07:01.651Z,21.10
2018-09-12T08:09:35.963Z,21.20
2018-09-12T08:12:10.495Z,21.10
2018-09-12T08:14:44.791Z,21.20
2018-09-12T08:17:19.147Z,21.60
2018-09-12T08:19:53.298Z,21.70
2018-09-12T08:22:27.587Z,21.60
2018-09-12T08:25:01.898Z,21.40
2018-09-12T08:27:36.215Z,21.70
2018-09-12T08:30:10.487Z,21.70
2018-09-12T08:32:44.888Z,21.70
2018-09-12T08:35:19.170Z,21.50
2018-09-12T08:37:53.431Z,21.30
2018-09-12T08:40:27.742Z,21.20
2018-09-12T08:43:02.050Z,21.40
2018-09-12T08:45:36.458Z,21.50
2018-09-12T08:48:10.770Z,21.60
2018-09-12T08:50:48.837Z,21.70
2018-09-12T08:53:23.010Z,21.60
2018-09-12T08:55:57.307Z,21.60
2018-09-12T08:58:31.658Z,21.60
2018-09-12T09:01:06.007Z,21.50
2018-09-12T09:03:40.255Z,21.50
2018-09-12T09:06:14.575Z,21.50
2018-09-12T09:08:49.031Z,21.50
2018-09-12T09:11:23.330Z,21.60
2018-09-12T09:13:57.619Z,21.50
2018-09-12T09:16:31.930Z,21.60
2018-09-12T09:19:06.237Z,21.70
2018-09-12T09:21:40.578Z,21.60
2018-09-12T09:24:14.891Z,21.80
2018-09-12T09:26:49.061Z,21.70
2018-09-12T09:29:23.559Z,21.80
2018-09-12T09:31:57.944Z,21.80
2018-09-12T09:34:32.160Z,21.80
2018-09-12T09:37:06.482Z,21.70
2018-09-12T09:39:40.760Z,21.80
2018-09-12T09:42:14.931Z,21.80
2018-09-12T09:44:49.360Z,21.80
2018-09-12T09:47:23.603Z,21.70
2018-09-12T09:49:57.946Z,21.20
2018-09-12T09:52:32.185Z,20.90
2018-09-12T09:55:06.628Z,20.60
2018-09-12T09:57:40.785Z,20.70
2018-09-12T10:00:20.513Z,20.40
2018-09-12T10:03:00.186Z,20.20
2018-09-12T10:05:39.718Z,20.20
2018-09-12T10:08:19.522Z,20.00
2018-09-12T10:10:54.245Z,19.80
2018-09-12T10:13:28.481Z,19.70
2018-09-12T10:16:02.682Z,19.50
2018-09-12T10:18:37.058Z,19.30
2018-09-12T10:21:11.242Z,19.40
2018-09-12T10:23:48.450Z,19.30
2018-09-12T10:27:58.379Z,19.00
2018-09-12T10:31:25.231Z,19.10
2018-09-12T10:34:01.423Z,19.20
2018-09-12T10:36:35.607Z,19.20
2018-09-12T10:39:11.928Z,19.10
2018-09-12T10:41:46.242Z,19.30
2018-09-12T10:44:20.558Z,19.30
2018-09-12T10:46:54.891Z,19.30
2018-09-12T10:49:38.588Z,19.10
2018-09-12T10:52:19.868Z,19.00
2018-09-12T10:54:54.270Z,19.10
2018-09-12T10:57:29.096Z,19.20
2018-09-12T11:00:03.315Z,19.20
2018-09-12T11:02:37.758Z,19.40
2018-09-12T11:05:12.034Z,19.20
2018-09-12T11:07:46.303Z,19.20
2018-09-12T11:10:20.501Z,18.60
2018-09-12T11:12:54.659Z,18.80
2018-09-12T11:15:29.116Z,18.90
2018-09-12T11:18:03.365Z,19.00
2018-09-12T11:20:37.716Z,19.00
2018-09-12T11:23:11.959Z,18.90
2018-09-12T11:25:46.214Z,19.00
2018-09-12T11:28:20.821Z,18.90
2018-09-12T11:30:55.021Z,18.60
2018-09-12T11:33:29.407Z,18.70
2018-09-12T11:36:03.695Z,18.50
2018-09-12T11:38:38.022Z,18.40
2018-09-12T11:41:12.190Z,18.60
2018-09-12T11:43:46.371Z,18.50
2018-09-12T11:46:20.673Z,18.50
2018-09-12T11:48:54.847Z,18.50
2018-09-12T11:51:29.298Z,18.60
2018-09-12T11:54:03.497Z,18.40
2018-09-12T11:56:43.424Z,18.30
2018-09-12T11:59:18.002Z,18.20
2018-09-12T12:01:53.462Z,17.80
2018-09-12T12:04:28.342Z,18.00
2018-09-12T12:07:02.753Z,18.10
2018-09-12T12:09:37.150Z,18.00
2018-09-12T12:12:11.435Z,18.20
2018-09-12T12:14:45.779Z,18.10
2018-09-12T12:17:20.067Z,18.00
2018-09-12T12:19:54.371Z,17.80
2018-09-12T12:22:28.627Z,17.90
2018-09-12T12:25:02.972Z,17.80
2018-09-12T12:27:37.148Z,17.60
2018-09-12T12:30:11.555Z,17.50
2018-09-12T12:32:45.804Z,17.70
2018-09-12T12:35:20.489Z,17.80
2018-09-12T12:37:54.671Z,17.90
2018-09-12T12:40:29.083Z,17.60
2018-09-12T12:43:03.306Z,17.50
2018-09-12T12:45:37.503Z,17.20
2018-09-12T12:48:11.907Z,17.40
2018-09-12T12:50:46.186Z,17.50
2018-09-12T12:53:20.529Z,17.60
2018-09-12T12:55:54.695Z,17.40
2018-09-12T12:58:28.883Z,17.50
2018-09-12T13:01:03.211Z,17.50
2018-09-12T13:03:37.458Z,17.40
2018-09-12T13:06:11.763Z,17.40
2018-09-12T13:08:46.023Z,17.40
2018-09-12T13:11:20.258Z,17.30
2018-09-12T13:13:54.572Z,17.20
2018-09-12T13:16:28.963Z,17.30
2018-09-12T13:19:03.152Z,17.30
2018-09-12T13:21:37.484Z,17.30
2018-09-12T13:24:11.651Z,17.30
2018-09-12T13:26:46.062Z,17.20
2018-09-12T13:29:20.382Z,17.20
2018-09-12T13:31:54.590Z,17.20
2018-09-12T13:34:28.916Z,17.10
2018-09-12T13:37:03.020Z,17.10
2018-09-12T13:39:37.402Z,17.20
2018-09-12T13:42:11.766Z,17.30
2018-09-12T13:44:45.923Z,17.20
2018-09-12T13:47:20.099Z,17.20
2018-09-12T13:49:54.358Z,17.10
2018-09-12T13:52:28.630Z,17.10
2018-09-12T13:55:03.049Z,17.00
2018-09-12T13:57:37.405Z,17.00
2018-09-12T14:00:11.896Z,17.20
2018-09-12T14:02:46.302Z,17.00
2018-09-12T14:05:20.559Z,17.20
2018-09-12T14:07:54.754Z,17.00
2018-09-12T14:10:29.058Z,17.10
2018-09-12T14:13:03.230Z,17.00
2018-09-12T14:15:37.579Z,17.20
2018-09-12T14:18:11.865Z,17.00
2018-09-12T14:20:46.146Z,17.20
2018-09-12T14:23:20.390Z,17.00
2018-09-12T14:25:54.546Z,17.20
2018-09-12T14:28:28.719Z,17.10
2018-09-12T14:31:02.942Z,17.10
2018-09-12T14:33:37.359Z,17.40
2018-09-12T14:36:11.527Z,17.60
2018-09-12T14:38:45.812Z,17.80
2018-09-12T14:41:20.099Z,17.90
2018-09-12T14:43:54.434Z,17.70
2018-09-12T14:46:28.682Z,17.60
2018-09-12T14:49:02.957Z,17.70
2018-09-12T14:51:37.304Z,17.80
2018-09-12T14:54:11.622Z,17.50
2018-09-12T14:56:45.890Z,17.70
2018-09-12T14:59:20.349Z,17.70
2018-09-12T15:01:54.707Z,17.70
2018-09-12T15:04:29.093Z,17.60
2018-09-12T15:07:03.431Z,17.70
2018-09-12T15:09:37.614Z,17.80
2018-09-12T15:12:11.891Z,17.70
2018-09-12T15:14:46.178Z,17.70
2018-09-12T15:17:20.591Z,17.60
2018-09-12T15:19:55.019Z,17.60
2018-09-12T15:22:29.290Z,17.60
2018-09-12T15:25:03.413Z,17.70
2018-09-12T15:27:37.717Z,17.60
2018-09-12T15:30:11.946Z,17.50
2018-09-12T15:32:46.258Z,17.60
2018-09-12T15:35:20.578Z,17.50
2018-09-12T15:37:54.955Z,17.50
2018-09-12T15:40:29.201Z,17.50
2018-09-12T15:43:03.479Z,17.50
2018-09-12T15:45:39.667Z,17.60
2018-09-12T15:48:13.842Z,17.60
2018-09-12T15:50:48.142Z,17.70
2018-09-12T15:53:22.382Z,17.30
2018-09-12T15:55:56.809Z,17.50
2018-09-12T15:58:31.198Z,17.50
2018-09-12T16:01:05.398Z,17.60
2018-09-12T16:03:39.679Z,17.70
2018-09-12T16:06:14.103Z,17.70
2018-09-12T16:08:48.939Z,17.70
2018-09-12T16:11:23.195Z,17.70
2018-09-12T16:13:57.531Z,17.80
2018-09-12T16:16:31.956Z,17.80
2018-09-12T16:19:06.642Z,17.70
2018-09-12T16:21:40.811Z,17.60
2018-09-12T16:24:15.111Z,17.40
2018-09-12T16:26:49.407Z,17.40
2018-09-12T16:29:23.735Z,17.40
2018-09-12T16:31:58.153Z,17.40
2018-09-12T16:34:32.429Z,17.40
2018-09-12T16:37:06.750Z,17.40
2018-09-12T16:39:40.892Z,17.50
2018-09-12T16:42:15.234Z,17.40
2018-09-12T16:44:49.530Z,17.00
2018-09-12T16:47:23.839Z,17.20
2018-09-12T16:49:58.126Z,17.30
2018-09-12T16:52:32.520Z,17.30
2018-09-12T16:55:06.853Z,17.30
2018-09-12T16:57:41.239Z,17.10
2018-09-12T17:00:15.572Z,17.30
2018-09-12T17:02:49.780Z,17.30
2018-09-12T17:05:24.058Z,17.40
2018-09-12T17:07:58.326Z,17.30
2018-09-12T17:10:32.658Z,17.30
2018-09-12T17:13:06.973Z,17.30
2018-09-12T17:15:41.329Z,17.30
2018-09-12T17:18:15.826Z,17.20
2018-09-12T17:20:51.709Z,17.30
2018-09-12T17:23:25.967Z,17.30
2018-09-12T17:26:00.123Z,17.40
2018-09-12T17:28:34.391Z,17.40
2018-09-12T17:31:08.754Z,17.40
2018-09-12T17:33:43.222Z,17.40
2018-09-12T17:36:17.670Z,17.40
2018-09-12T17:38:52.101Z,17.40
2018-09-12T17:41:26.450Z,17.30
2018-09-12T17:44:00.828Z,17.30
2018-09-12T17:46:35.046Z,17.20
2018-09-12T17:49:09.422Z,17.30
2018-09-12T17:51:43.665Z,17.30
2018-09-12T17:54:17.908Z,17.30
2018-09-12T17:56:52.418Z,17.40
2018-09-12T17:59:26.625Z,17.30
2018-09-12T18:02:01.111Z,17.40
2018-09-12T18:04:35.402Z,17.30
2018-09-12T18:07:09.689Z,17.30
2018-09-12T18:09:44.064Z,17.30
2018-09-12T18:12:18.398Z,17.30
2018-09-12T18:14:52.718Z,17.30
2018-09-12T18:17:26.994Z,17.10
2018-09-12T18:20:01.098Z,17.00
2018-09-12T18:22:35.475Z,17.00
2018-09-12T18:25:09.729Z,16.80
2018-09-12T18:27:44.961Z,16.90
2018-09-12T18:30:19.382Z,17.00
2018-09-12T18:32:53.787Z,16.90
2018-09-12T18:35:28.059Z,16.90
2018-09-12T18:38:02.378Z,16.80
2018-09-12T18:40:36.703Z,16.70
2018-09-12T18:43:11.134Z,16.80
2018-09-12T18:45:45.469Z,16.70
2018-09-12T18:48:19.790Z,16.70
2018-09-12T18:50:53.988Z,16.60
2018-09-12T18:53:28.342Z,16.60
2018-09-12T18:56:02.638Z,16.50
2018-09-12T18:58:37.230Z,16.50
2018-09-12T19:01:11.486Z,16.50
2018-09-12T19:03:45.694Z,16.50
2018-09-12T19:06:20.067Z,16.40
2018-09-12T19:08:54.499Z,16.40
2018-09-12T19:11:28.757Z,16.40
2018-09-12T19:14:03.055Z,16.30
2018-09-12T19:16:37.358Z,16.30
2018-09-12T19:19:11.514Z,16.20
2018-09-12T19:21:45.689Z,16.20
2018-09-12T19:24:20.048Z,16.20
2018-09-12T19:26:54.459Z,16.30
2018-09-12T19:29:28.840Z,16.10
2018-09-12T19:32:02.945Z,16.10
2018-09-12T19:34:37.238Z,16.00
2018-09-12T19:37:11.670Z,16.00
2018-09-12T19:39:46.023Z,16.00
2018-09-12T19:42:20.519Z,16.00
2018-09-12T19:44:54.804Z,15.90
2018-09-12T19:47:29.092Z,15.80
2018-09-12T19:50:03.427Z,15.80
2018-09-12T19:52:37.718Z,15.80
2018-09-12T19:55:12.027Z,15.70
2018-09-12T19:57:46.326Z,15.70
2018-09-12T20:00:20.667Z,15.70
2018-09-12T20:02:54.870Z,15.70
2018-09-12T20:05:29.231Z,15.70
2018-09-12T20:08:03.613Z,15.70
2018-09-12T20:10:37.898Z,15.70
2018-09-12T20:13:12.219Z,15.70
2018-09-12T20:15:46.500Z,15.70
2018-09-12T20:24:13.743Z,15.70
2018-09-12T20:30:02.801Z,15.70
2018-09-12T20:32:42.406Z,15.80
2018-09-12T20:35:32.574Z,15.80
2018-09-12T20:41:27.599Z,15.90
2018-09-12T20:44:01.935Z,15.90
2018-09-12T20:50:29.852Z,15.90
2018-09-12T20:53:04.073Z,15.70
2018-09-12T20:55:38.390Z,15.80
2018-09-12T20:58:12.709Z,15.80
2018-09-12T21:00:46.961Z,15.80
2018-09-12T21:03:21.245Z,15.90
2018-09-12T21:05:55.471Z,15.90
2018-09-12T21:08:29.797Z,15.90
2018-09-12T21:11:04.104Z,15.90
2018-09-12T21:13:38.353Z,15.90
2018-09-12T21:16:12.694Z,16.00
2018-09-12T21:18:47.113Z,15.90
2018-09-12T21:21:21.307Z,15.90
2018-09-12T21:23:55.535Z,15.90
2018-09-12T21:26:29.637Z,15.90
2018-09-12T21:29:04.030Z,15.90
2018-09-12T21:31:38.174Z,15.90
2018-09-12T21:34:12.487Z,15.90
2018-09-12T21:36:46.745Z,15.80
2018-09-12T21:39:20.918Z,15.80
2018-09-12T21:41:55.117Z,15.90
2018-09-12T21:44:29.555Z,15.70
2018-09-12T21:47:03.711Z,15.80
2018-09-12T21:49:38.130Z,15.80
2018-09-12T21:52:12.291Z,15.80
2018-09-12T21:54:46.618Z,15.90
2018-09-12T21:57:20.941Z,15.90
2018-09-12T21:59:55.230Z,15.80
2018-09-12T22:02:29.483Z,15.60
2018-09-12T22:05:03.731Z,15.70
2018-09-12T22:07:38.062Z,15.70
2018-09-12T22:10:12.438Z,15.80
2018-09-12T22:12:46.739Z,15.80
2018-09-12T22:15:20.975Z,15.80
2018-09-12T22:17:55.357Z,15.70
2018-09-12T22:20:29.731Z,15.80
2018-09-12T22:23:04.102Z,15.80
2018-09-12T22:25:38.364Z,15.80
2018-09-12T22:28:12.643Z,15.80
2018-09-12T22:30:47.025Z,15.80
2018-09-12T22:33:21.138Z,15.70
2018-09-12T22:35:55.713Z,15.60
2018-09-12T22:38:30.063Z,15.70
2018-09-12T22:41:04.377Z,15.60
2018-09-12T22:43:38.682Z,15.70
2018-09-12T22:46:12.939Z,15.70
2018-09-12T22:48:47.288Z,15.80
2018-09-12T22:51:21.598Z,15.80
2018-09-12T22:53:55.858Z,15.80
2018-09-12T22:56:30.140Z,15.80
2018-09-12T22:59:04.394Z,15.70
2018-09-12T23:01:38.743Z,15.70
2018-09-12T23:04:13.124Z,15.70
2018-09-12T23:06:47.482Z,15.80
2018-09-12T23:09:21.779Z,15.80
2018-09-12T23:11:56.155Z,15.80
2018-09-12T23:14:30.358Z,15.80
2018-09-12T23:17:04.719Z,15.80
2018-09-12T23:19:38.909Z,15.80
2018-09-12T23:22:13.197Z,15.80
2018-09-12T23:24:47.537Z,15.80
2018-09-12T23:27:21.841Z,15.80
2018-09-12T23:29:56.218Z,15.80
2018-09-12T23:32:30.550Z,15.80
2018-09-12T23:35:04.794Z,15.80
2018-09-12T23:37:39.155Z,15.90
2018-09-12T23:40:13.322Z,15.80
2018-09-12T23:42:47.592Z,15.80
2018-09-12T23:45:21.750Z,15.80
2018-09-12T23:47:56.263Z,15.80
2018-09-12T23:50:30.574Z,15.80
2018-09-12T23:53:05.087Z,15.70
2018-09-12T23:55:39.373Z,15.70
2018-09-12T23:58:13.617Z,15.80
